ENAN/ANX METAR and TAF weather

Enter ICAO airport designator
Station Type Date Time Source
ENAN METAR 2022/06/30 01:50 UTC NOAA

ENAN 300150Z AUTO 24009KT 9999 BKN009/// OVC012/// 10/09 Q1024


Station Type Date Time Source
ENAN Decoded METAR 2022/06/30 01:50 UTC NOAA

Andoya, Norway (ENAN) 69-18N 016-09E 14M
Jun 29, 2022 - 09:50 PM EDT / 2022.06.30 0150 UTC
Wind: from the WSW (240 degrees) at 10 MPH (9 KT):0
Visibility: greater than 7 mile(s):0
Sky conditions: overcast
Temperature: 50 F (10 C)
Dew Point: 48 F (9 C)
Relative Humidity: 93%
Pressure (altimeter): 30.24 in. Hg (1024 hPa)
ob: ENAN 300150Z AUTO 24009KT 9999 BKN009/// OVC012/// 10/09 Q1024
cycle: 2

Station Type Date Time Source
ENAN TAF 2022/06/30 00:30 UTC NOAA

TAF TAF
AMD ENAN 3000/3024 23015KT 9999 BKN015
TEMPO 3000/3004 22015G25KT
TEMPO 3000/3007 3000 DZ BR OVC006
BECMG 3004/3007 34009KT
BECMG 3011/3013 04018KT SCT014

Example: see airport list